Time;durP1;ratioP1;P1;durP2;ratioP2;P2;SDS_P1;SDS_P2;PMS_P1;PMS_P2;Temp;Humidity;BMP_temperature;BMP_pressure;BME280_temperature;BME280_humidity;BME280_pressure;Samples;Min_cycle;Max_cycle;Signal;HPM_P1;HPM_P2
2023/02/13 00:00:23;;;;;;;23.97;17.40;;;3.90;99.90;;;;;;5014955;28;20713;-71
2023/02/13 00:02:50;;;;;;;26.00;19.60;;;3.90;99.90;;;;;;5014414;28;20277;-71
2023/02/13 00:05:16;;;;;;;25.03;18.10;;;4.00;99.90;;;;;;5014703;28;20988;-72
2023/02/13 00:07:41;;;;;;;26.37;17.30;;;4.00;99.90;;;;;;5014848;28;20485;-71
2023/02/13 00:10:08;;;;;;;24.70;17.80;;;3.90;99.90;;;;;;5015041;28;20452;-71
2023/02/13 00:12:33;;;;;;;27.63;19.37;;;3.90;99.90;;;;;;5014608;28;20184;-71
2023/02/13 00:14:59;;;;;;;24.47;17.63;;;3.80;99.90;;;;;;5014385;28;20407;-69
2023/02/13 00:17:25;;;;;;;25.60;18.00;;;3.70;99.90;;;;;;5014267;28;20172;-71
2023/02/13 00:19:51;;;;;;;28.93;19.27;;;3.70;99.90;;;;;;5014543;28;20176;-70
2023/02/13 00:22:17;;;;;;;29.30;18.87;;;3.70;99.90;;;;;;5029670;28;20529;-70
2023/02/13 00:24:42;;;;;;;28.10;18.03;;;3.70;99.90;;;;;;5044788;23;20227;-68
2023/02/13 00:27:08;;;;;;;25.00;19.10;;;3.70;99.90;;;;;;4994155;28;20197;-68
2023/02/13 00:29:34;;;;;;;28.30;18.77;;;3.70;99.90;;;;;;4994407;28;20196;-68
2023/02/13 00:32:00;;;;;;;24.73;18.07;;;3.70;99.90;;;;;;5001873;28;20537;-68
2023/02/13 00:34:26;;;;;;;24.80;17.50;;;3.70;99.90;;;;;;5028870;28;20206;-69
2023/02/13 00:36:52;;;;;;;32.20;20.63;;;3.70;99.90;;;;;;5013760;28;20464;-68
2023/02/13 00:39:17;;;;;;;28.07;19.73;;;3.60;99.90;;;;;;5013376;28;20481;-69
2023/02/13 00:41:43;;;;;;;27.70;19.83;;;3.60;99.90;;;;;;5014456;28;20641;-69
2023/02/13 00:44:09;;;;;;;28.33;20.70;;;3.60;99.90;;;;;;5014238;28;20218;-69
2023/02/13 00:46:35;;;;;;;28.30;18.50;;;3.60;99.90;;;;;;5013529;28;20559;-68
2023/02/13 00:49:01;;;;;;;25.50;17.33;;;3.60;99.90;;;;;;5013692;28;20422;-69
2023/02/13 00:51:27;;;;;;;26.83;17.93;;;3.60;99.90;;;;;;5013484;28;20407;-69
2023/02/13 00:53:52;;;;;;;30.50;20.10;;;3.60;99.90;;;;;;5013706;28;20519;-70
2023/02/13 00:56:18;;;;;;;29.13;19.40;;;3.60;99.90;;;;;;5013595;28;20172;-69
2023/02/13 00:58:44;;;;;;;31.90;18.40;;;3.70;99.90;;;;;;5013151;28;20171;-69
2023/02/13 01:01:10;;;;;;;24.67;16.10;;;3.70;99.90;;;;;;5013056;28;20168;-69
2023/02/13 01:03:35;;;;;;;23.20;17.03;;;3.70;99.90;;;;;;5013347;28;20959;-69
2023/02/13 01:06:01;;;;;;;25.93;17.13;;;3.70;99.90;;;;;;5013372;28;20237;-69
2023/02/13 01:08:30;;;;;;;29.30;17.87;;;3.70;99.90;;;;;;5013048;28;20283;-69
2023/02/13 01:10:56;;;;;;;28.73;20.00;;;3.60;99.90;;;;;;5012910;28;20218;-69
2023/02/13 01:13:21;;;;;;;29.10;18.83;;;3.50;99.90;;;;;;5028191;28;20545;-68
2023/02/13 01:15:48;;;;;;;31.27;21.60;;;3.50;99.90;;;;;;5013035;28;20442;-68
2023/02/13 01:18:15;;;;;;;26.43;17.10;;;3.40;99.90;;;;;;5013098;28;20538;-69
2023/02/13 01:20:42;;;;;;;26.80;17.47;;;3.50;99.90;;;;;;4997176;28;20407;-69
2023/02/13 01:23:09;;;;;;;26.53;19.07;;;3.40;99.90;;;;;;4993610;28;20527;-69
2023/02/13 01:25:38;;;;;;;35.47;20.13;;;3.50;99.90;;;;;;4992955;28;20444;-69
2023/02/13 01:28:03;;;;;;;33.40;21.73;;;3.40;99.90;;;;;;4990980;28;20451;-69
2023/02/13 01:30:29;;;;;;;26.93;18.73;;;3.40;99.90;;;;;;4993273;28;20427;-69
2023/02/13 01:32:54;;;;;;;34.43;19.03;;;3.40;99.90;;;;;;5007334;28;20256;-69
2023/02/13 01:35:20;;;;;;;31.50;19.77;;;3.40;99.90;;;;;;5012691;28;20246;-69
2023/02/13 01:37:45;;;;;;;28.30;17.50;;;3.40;99.90;;;;;;5012844;28;20219;-67
2023/02/13 01:40:12;;;;;;;31.33;19.03;;;3.40;99.90;;;;;;5011243;28;20635;-68
2023/02/13 01:42:38;;;;;;;27.30;17.67;;;3.40;99.90;;;;;;5012779;28;20226;-68
2023/02/13 01:45:27;;;;;;;23.50;16.53;;;3.40;99.90;;;;;;5027771;28;20427;-68
2023/02/13 01:47:54;;;;;;;31.00;19.27;;;3.30;99.90;;;;;;5013152;28;20180;-68
2023/02/13 01:50:23;;;;;;;30.47;17.53;;;3.30;99.90;;;;;;5012809;28;20398;-68
2023/02/13 01:52:56;;;;;;;31.87;19.40;;;3.30;99.90;;;;;;5012518;28;20402;-68
2023/02/13 01:55:23;;;;;;;22.77;15.90;;;3.30;99.90;;;;;;5003491;28;20427;-68
2023/02/13 01:57:58;;;;;;;26.63;16.17;;;3.30;99.90;;;;;;4992658;28;20504;-68
2023/02/13 02:00:23;;;;;;;30.60;19.77;;;3.40;99.90;;;;;;4993364;28;20394;-68
2023/02/13 02:02:57;;;;;;;31.23;19.20;;;3.40;99.90;;;;;;4991908;28;20903;-68
2023/02/13 02:05:25;;;;;;;27.10;18.77;;;3.30;99.90;;;;;;4992873;28;20192;-68
2023/02/13 02:07:52;;;;;;;35.67;20.37;;;3.40;99.90;;;;;;4993012;28;20444;-68
2023/02/13 02:10:19;;;;;;;24.60;17.10;;;3.30;99.90;;;;;;4992632;28;20403;-69
2023/02/13 02:13:05;;;;;;;28.70;18.70;;;3.30;99.90;;;;;;4992892;28;20457;-69
2023/02/13 02:15:31;;;;;;;28.07;18.63;;;3.40;99.90;;;;;;4993126;28;20419;-69
2023/02/13 02:17:57;;;;;;;26.97;17.63;;;3.40;99.90;;;;;;4993157;28;20407;-69
2023/02/13 02:20:54;;;;;;;28.30;19.00;;;3.40;99.90;;;;;;4993188;28;20416;-68
2023/02/13 02:23:44;;;;;;;26.97;19.00;;;3.40;99.90;;;;;;4992787;28;20219;-69
2023/02/13 02:26:39;;;;;;;30.23;20.87;;;3.30;99.90;;;;;;4992411;28;20396;-69
2023/02/13 02:29:14;;;;;;;27.23;16.47;;;3.20;99.90;;;;;;4993242;28;20795;-68
2023/02/13 02:32:17;;;;;;;24.70;16.57;;;3.30;99.90;;;;;;4995975;28;20438;-69
2023/02/13 02:34:55;;;;;;;27.67;18.57;;;3.40;99.90;;;;;;5012410;28;20506;-69
2023/02/13 02:37:26;;;;;;;25.80;17.27;;;3.30;99.90;;;;;;5027252;28;20403;-68
2023/02/13 02:39:52;;;;;;;23.83;15.83;;;3.30;99.90;;;;;;5015358;28;20921;-69
2023/02/13 02:42:41;;;;;;;32.77;20.67;;;3.30;99.90;;;;;;5015669;28;20433;-69
2023/02/13 02:45:22;;;;;;;26.67;18.37;;;3.30;99.90;;;;;;5015748;28;20278;-69
2023/02/13 02:50:55;;;;;;;34.03;19.27;;;3.20;99.90;;;;;;5015620;28;20426;-69
2023/02/13 02:53:55;;;;;;;29.27;19.23;;;3.10;99.90;;;;;;5015756;28;20391;-68
2023/02/13 02:56:30;;;;;;;31.73;20.90;;;3.10;99.90;;;;;;5004174;28;20518;-68
2023/02/13 03:07:32;;;;;;;29.80;19.53;;;2.90;99.90;;;;;;5015564;28;20796;-69
2023/02/13 03:13:22;;;;;;;23.33;17.27;;;3.00;99.90;;;;;;5014070;28;20179;-69
2023/02/13 03:25:09;;;;;;;30.60;20.93;;;3.30;99.90;;;;;;4995382;28;20455;-69
2023/02/13 03:30:52;;;;;;;28.73;18.97;;;3.20;99.90;;;;;;4995528;28;20435;-69
2023/02/13 03:33:47;;;;;;;26.03;18.00;;;3.10;99.90;;;;;;5012910;28;20848;-69
2023/02/13 03:39:08;;;;;;;21.73;16.87;;;3.10;99.90;;;;;;5015381;28;20383;-69
2023/02/13 03:41:38;;;;;;;34.27;22.10;;;3.00;99.90;;;;;;5015337;28;20916;-68
2023/02/13 03:44:24;;;;;;;32.57;20.43;;;3.00;99.90;;;;;;5015032;28;20480;-68
2023/02/13 03:46:53;;;;;;;41.67;23.70;;;2.80;99.90;;;;;;5014593;28;20751;-69
2023/02/13 03:52:42;;;;;;;35.80;21.53;;;2.80;99.90;;;;;;5014670;28;20434;-68
2023/02/13 04:00:54;;;;;;;36.10;22.80;;;2.90;99.90;;;;;;5014587;28;20386;-68
2023/02/13 04:03:30;;;;;;;27.40;19.50;;;3.00;99.90;;;;;;5013935;28;20959;-69
2023/02/13 04:06:02;;;;;;;28.03;18.93;;;3.10;99.90;;;;;;4995446;28;20864;-68
2023/02/13 04:08:28;;;;;;;27.53;18.53;;;3.20;99.90;;;;;;4994638;28;20843;-69
2023/02/13 04:11:06;;;;;;;27.87;19.27;;;3.20;99.90;;;;;;4993359;28;20395;-69
2023/02/13 04:13:44;;;;;;;27.17;19.57;;;3.10;99.90;;;;;;4994518;28;20153;-68
2023/02/13 04:16:17;;;;;;;28.13;19.40;;;3.20;99.90;;;;;;4994451;28;20393;-69
2023/02/13 04:18:43;;;;;;;31.47;20.00;;;3.20;99.90;;;;;;4994324;28;20918;-69
2023/02/13 04:21:09;;;;;;;28.13;19.53;;;3.10;99.90;;;;;;4994664;28;20754;-69
2023/02/13 04:23:35;;;;;;;30.60;18.57;;;3.20;99.90;;;;;;4993504;28;20441;-68
2023/02/13 04:26:06;;;;;;;25.90;18.60;;;3.20;99.90;;;;;;4994091;28;20208;-69
2023/02/13 04:28:31;;;;;;;34.50;20.80;;;3.20;99.90;;;;;;4994124;28;20843;-69
2023/02/13 04:30:57;;;;;;;31.27;20.13;;;3.20;99.90;;;;;;4994088;28;20494;-69
2023/02/13 04:33:23;;;;;;;30.13;18.80;;;3.10;99.90;;;;;;5010903;28;20518;-69
2023/02/13 04:35:48;;;;;;;29.40;19.10;;;3.00;99.90;;;;;;5013408;28;20188;-68
2023/02/13 04:38:14;;;;;;;28.37;19.80;;;3.00;99.90;;;;;;5013473;28;20407;-68
2023/02/13 04:40:40;;;;;;;25.33;16.93;;;3.10;99.90;;;;;;5013871;28;20168;-69
2023/02/13 04:43:05;;;;;;;31.30;19.70;;;3.10;99.90;;;;;;5028989;28;20164;-69
2023/02/13 04:45:31;;;;;;;29.60;19.93;;;2.90;99.90;;;;;;5013661;28;20188;-69
2023/02/13 04:47:57;;;;;;;33.93;20.83;;;2.80;99.90;;;;;;5013173;28;20683;-69
2023/02/13 04:50:24;;;;;;;34.03;20.60;;;2.90;99.90;;;;;;5013737;28;20442;-69
2023/02/13 04:52:54;;;;;;;30.97;19.10;;;3.00;99.90;;;;;;5014019;28;20902;-69
2023/02/13 04:55:20;;;;;;;28.37;18.97;;;3.00;99.90;;;;;;5013421;28;20510;-69
2023/02/13 04:57:47;;;;;;;23.50;17.07;;;3.00;99.90;;;;;;5013422;28;20414;-69
2023/02/13 05:00:13;;;;;;;24.10;17.57;;;3.00;99.90;;;;;;5013631;28;20403;-69
2023/02/13 05:02:38;;;;;;;28.07;19.60;;;3.00;99.90;;;;;;5013099;28;20417;-69
2023/02/13 05:05:04;;;;;;;24.83;17.47;;;3.00;99.90;;;;;;5004474;28;20946;-69
2023/02/13 05:07:30;;;;;;;26.43;17.80;;;3.10;99.90;;;;;;4993612;28;20193;-69
2023/02/13 05:09:55;;;;;;;35.30;21.53;;;3.00;99.90;;;;;;4993756;28;20686;-69
2023/02/13 05:12:21;;;;;;;30.63;18.83;;;2.90;99.90;;;;;;5008637;28;20235;-68
2023/02/13 05:14:46;;;;;;;26.27;18.03;;;2.90;99.90;;;;;;5008678;28;20185;-68
2023/02/13 05:17:12;;;;;;;24.90;16.80;;;2.70;99.90;;;;;;4993293;28;20177;-68
2023/02/13 05:19:37;;;;;;;34.27;21.47;;;2.80;99.90;;;;;;5008397;28;20173;-69
2023/02/13 05:24:47;;;;;;;26.57;19.27;;;2.70;99.90;;;;;;4993342;28;20274;-69
2023/02/13 05:27:12;;;;;;;27.70;18.80;;;2.70;99.90;;;;;;4993493;28;20849;-68
2023/02/13 05:29:38;;;;;;;30.53;19.33;;;2.70;99.90;;;;;;4993324;28;20196;-69
2023/02/13 05:32:03;;;;;;;32.87;21.43;;;2.70;99.90;;;;;;4998317;28;20206;-69
2023/02/13 05:34:29;;;;;;;35.07;22.10;;;2.70;99.90;;;;;;5012781;28;20276;-68
2023/02/13 05:36:55;;;;;;;28.20;18.83;;;2.70;99.90;;;;;;5012992;28;20174;-69
2023/02/13 05:39:21;;;;;;;26.60;18.07;;;2.80;99.90;;;;;;5012854;28;20172;-69
2023/02/13 05:41:47;;;;;;;26.10;19.00;;;2.90;99.90;;;;;;5012810;28;20286;-69
2023/02/13 05:44:14;;;;;;;39.70;23.33;;;2.90;99.90;;;;;;5012649;28;20433;-69
2023/02/13 05:46:41;;;;;;;29.30;20.77;;;2.80;99.90;;;;;;5027885;28;20476;-69
2023/02/13 05:49:08;;;;;;;37.93;22.40;;;2.80;99.90;;;;;;5012454;28;20564;-69
2023/02/13 05:51:33;;;;;;;41.40;25.60;;;2.80;99.90;;;;;;5011349;28;20418;-69
2023/02/13 05:53:59;;;;;;;31.17;21.10;;;2.70;99.90;;;;;;5012605;28;20419;-68
2023/02/13 05:56:25;;;;;;;36.67;24.23;;;2.60;99.90;;;;;;5012859;28;20221;-69
2023/02/13 05:58:52;;;;;;;34.30;24.10;;;2.70;99.90;;;;;;5010047;28;20183;-69
2023/02/13 06:01:18;;;;;;;32.50;21.17;;;2.60;99.90;;;;;;4992936;28;20248;-68
2023/02/13 06:03:44;;;;;;;27.10;19.90;;;2.70;99.90;;;;;;4971871;28;20420;-69
2023/02/13 06:06:09;;;;;;;36.23;25.37;;;2.70;99.90;;;;;;4973922;28;20401;-70
2023/02/13 06:08:35;;;;;;;29.73;20.77;;;2.70;99.90;;;;;;4972267;28;20683;-69
2023/02/13 06:11:01;;;;;;;29.20;22.53;;;2.70;99.90;;;;;;4973557;28;20170;-68
2023/02/13 06:13:26;;;;;;;36.90;23.53;;;2.70;99.90;;;;;;4974836;28;20168;-69
2023/02/13 06:15:52;;;;;;;34.40;21.60;;;2.70;99.90;;;;;;4977517;28;20640;-70
2023/02/13 06:18:18;;;;;;;30.00;21.43;;;2.70;99.90;;;;;;4977182;28;20187;-69
2023/02/13 06:20:43;;;;;;;35.57;22.57;;;2.60;99.90;;;;;;4977358;28;20409;-69
2023/02/13 06:23:09;;;;;;;40.10;22.97;;;2.60;99.90;;;;;;4978248;28;20173;-69
2023/02/13 06:25:35;;;;;;;29.60;20.03;;;2.50;99.90;;;;;;5029520;23;20285;-70
2023/02/13 06:28:01;;;;;;;29.47;20.80;;;2.60;99.90;;;;;;5036247;28;20279;-70
2023/02/13 06:30:27;;;;;;;31.93;20.83;;;2.60;99.90;;;;;;5036508;28;20456;-71
2023/02/13 06:32:53;;;;;;;29.90;21.43;;;2.70;99.90;;;;;;5035281;28;20421;-71
2023/02/13 06:35:18;;;;;;;33.37;22.00;;;2.60;99.90;;;;;;5051846;28;20195;-70
2023/02/13 06:37:44;;;;;;;28.37;21.30;;;2.50;99.90;;;;;;5036853;28;20182;-70
2023/02/13 06:40:11;;;;;;;35.53;22.73;;;2.60;99.90;;;;;;5036379;28;20179;-70
2023/02/13 06:42:37;;;;;;;31.37;19.70;;;2.60;99.90;;;;;;5051380;28;20223;-69
2023/02/13 06:45:03;;;;;;;36.33;23.63;;;2.60;99.90;;;;;;5035876;28;20539;-70
2023/02/13 06:47:29;;;;;;;27.13;18.80;;;2.60;99.90;;;;;;5035756;28;20205;-70
2023/02/13 06:49:54;;;;;;;32.30;21.73;;;2.70;99.90;;;;;;5050960;28;20418;-70
2023/02/13 06:52:20;;;;;;;29.67;21.80;;;2.70;99.90;;;;;;5035727;28;20214;-69
2023/02/13 06:54:45;;;;;;;35.60;24.17;;;2.70;99.90;;;;;;5050883;28;20188;-70
2023/02/13 06:57:11;;;;;;;38.80;23.83;;;2.60;99.90;;;;;;5050681;28;20206;-70
2023/02/13 06:59:36;;;;;;;27.97;22.40;;;2.60;99.90;;;;;;5035517;28;20544;-71
2023/02/13 07:02:02;;;;;;;32.43;22.77;;;2.60;99.90;;;;;;5043393;28;20228;-71
2023/02/13 07:04:28;;;;;;;29.60;20.83;;;2.70;99.90;;;;;;5014937;28;20238;-69
2023/02/13 07:06:55;;;;;;;30.63;20.20;;;2.70;99.90;;;;;;5015545;28;20210;-70
2023/02/13 07:09:21;;;;;;;39.27;22.23;;;2.90;99.90;;;;;;5015661;28;20537;-70
2023/02/13 07:11:47;;;;;;;32.40;23.17;;;2.90;99.90;;;;;;5014658;28;20415;-70
2023/02/13 07:14:12;;;;;;;30.00;22.40;;;2.90;99.90;;;;;;5015729;28;20410;-69
2023/02/13 07:16:38;;;;;;;27.20;19.63;;;2.90;99.90;;;;;;5014129;28;20183;-71
2023/02/13 07:19:03;;;;;;;29.80;21.00;;;3.00;99.90;;;;;;5016439;28;20251;-71
2023/02/13 07:21:29;;;;;;;28.73;20.17;;;3.00;99.90;;;;;;5015750;28;20238;-71
2023/02/13 07:23:55;;;;;;;33.07;23.30;;;3.10;99.90;;;;;;5014364;28;20207;-71
2023/02/13 07:26:20;;;;;;;31.80;23.47;;;3.10;99.90;;;;;;5015331;28;20186;-71
2023/02/13 07:28:46;;;;;;;31.50;21.47;;;3.20;99.90;;;;;;5015554;28;20627;-71
2023/02/13 07:31:11;;;;;;;40.73;25.23;;;3.20;99.90;;;;;;5015155;28;20160;-71
2023/02/13 07:33:37;;;;;;;27.53;20.40;;;3.10;99.90;;;;;;5029960;28;20171;-70
2023/02/13 07:36:03;;;;;;;32.67;21.23;;;3.10;99.90;;;;;;5034979;28;20249;-69
2023/02/13 07:38:30;;;;;;;28.90;20.40;;;3.00;99.90;;;;;;5035070;28;20171;-71
2023/02/13 07:41:03;;;;;;;26.60;18.23;;;3.00;99.90;;;;;;5034758;28;20811;-71
2023/02/13 07:43:29;;;;;;;26.03;19.07;;;3.10;99.90;;;;;;5050341;28;20921;-71
2023/02/13 07:45:59;;;;;;;34.83;22.60;;;3.20;99.90;;;;;;5034943;28;20434;-70
2023/02/13 07:48:26;;;;;;;32.07;22.90;;;3.20;99.90;;;;;;5034552;28;20434;-71
2023/02/13 07:50:53;;;;;;;29.70;20.70;;;3.30;99.90;;;;;;5035023;28;20911;-70
2023/02/13 07:53:18;;;;;;;23.23;17.47;;;3.40;99.90;;;;;;5034789;28;20462;-69
2023/02/13 07:55:44;;;;;;;35.00;25.70;;;3.50;99.90;;;;;;5017428;28;21023;-71
2023/02/13 07:58:09;;;;;;;27.57;20.93;;;3.60;99.90;;;;;;5015482;28;20168;-71
2023/02/13 08:00:35;;;;;;;28.87;20.97;;;3.60;99.90;;;;;;5014989;28;20164;-71
2023/02/13 08:03:01;;;;;;;30.13;21.07;;;3.60;99.90;;;;;;5025892;28;20605;-71
2023/02/13 08:05:27;;;;;;;25.53;18.10;;;3.70;99.90;;;;;;5034679;28;20194;-71
2023/02/13 08:07:53;;;;;;;28.07;19.83;;;3.80;99.90;;;;;;5049704;28;20282;-71
2023/02/13 08:13:04;;;;;;;27.83;20.67;;;4.00;99.90;;;;;;5034760;28;20212;-71
2023/02/13 08:15:29;;;;;;;31.70;22.20;;;4.00;99.90;;;;;;5034531;28;20413;-71
2023/02/13 08:17:55;;;;;;;28.63;21.40;;;4.10;99.90;;;;;;5033932;28;20418;-70
2023/02/13 08:20:21;;;;;;;29.77;20.63;;;4.20;99.90;;;;;;5034570;28;20647;-70
2023/02/13 08:22:46;;;;;;;27.57;20.70;;;4.30;99.90;;;;;;5034134;28;20159;-70
2023/02/13 08:25:12;;;;;;;30.70;20.73;;;4.30;99.90;;;;;;5033937;28;20222;-70
2023/02/13 08:27:38;;;;;;;34.27;25.37;;;4.50;99.90;;;;;;5033981;28;20662;-70
2023/02/13 08:30:04;;;;;;;31.67;22.00;;;4.50;99.90;;;;;;5034240;28;20414;-71
2023/02/13 08:32:30;;;;;;;34.73;25.80;;;4.50;99.90;;;;;;5032794;28;20176;-71
2023/02/13 08:34:55;;;;;;;27.90;22.90;;;4.60;99.90;;;;;;5033761;28;20441;-69
2023/02/13 08:37:21;;;;;;;33.57;23.90;;;4.70;99.90;;;;;;5033372;28;20258;-71
2023/02/13 08:39:47;;;;;;;37.33;25.87;;;4.80;99.90;;;;;;5033998;28;20233;-71
2023/02/13 08:42:12;;;;;;;32.30;23.30;;;4.90;99.90;;;;;;5032425;28;20591;-71
2023/02/13 08:44:40;;;;;;;31.80;22.17;;;5.00;99.90;;;;;;5033823;28;20266;-70
2023/02/13 08:47:06;;;;;;;28.17;21.73;;;5.10;99.90;;;;;;5033670;28;20187;-71
2023/02/13 08:49:32;;;;;;;33.93;22.33;;;5.20;99.90;;;;;;5033648;28;20407;-71
2023/02/13 08:51:58;;;;;;;30.57;22.57;;;5.10;99.90;;;;;;5035169;28;20406;-71
2023/02/13 08:54:24;;;;;;;31.83;24.27;;;5.20;99.90;;;;;;5034162;28;20187;-71
2023/02/13 08:56:50;;;;;;;27.20;20.27;;;5.30;99.90;;;;;;5043153;28;20530;-71
2023/02/13 08:59:15;;;;;;;25.50;19.97;;;5.40;99.90;;;;;;5013710;28;20407;-70
2023/02/13 09:01:41;;;;;;;30.73;21.60;;;5.50;99.90;;;;;;5012381;28;20178;-71
2023/02/13 09:04:07;;;;;;;27.17;20.23;;;5.30;99.90;;;;;;5032811;28;20171;-71
2023/02/13 09:06:32;;;;;;;25.50;19.83;;;5.30;99.90;;;;;;5033786;28;20234;-71
2023/02/13 09:08:58;;;;;;;24.30;18.17;;;5.40;99.90;;;;;;5033642;28;20163;-71
2023/02/13 09:11:23;;;;;;;25.13;17.80;;;5.40;99.90;;;;;;5033782;28;20206;-72
2023/02/13 09:13:52;;;;;;;24.40;18.00;;;5.40;99.90;;;;;;5033968;28;20159;-72
2023/02/13 09:16:18;;;;;;;21.60;17.27;;;5.50;99.90;;;;;;5033431;28;20242;-70
2023/02/13 09:18:46;;;;;;;25.63;18.93;;;5.50;99.90;;;;;;5032850;28;20410;-70
2023/02/13 09:21:12;;;;;;;22.63;16.83;;;5.60;99.90;;;;;;5033377;28;20398;-71
2023/02/13 09:23:39;;;;;;;24.80;16.70;;;5.60;99.90;;;;;;5033377;28;20456;-70
2023/02/13 09:26:08;;;;;;;19.70;16.70;;;5.60;99.90;;;;;;5033107;28;20286;-71
2023/02/13 09:28:35;;;;;;;21.00;16.43;;;5.60;99.90;;;;;;5033357;28;20451;-71
2023/02/13 09:31:09;;;;;;;24.37;16.90;;;5.90;99.90;;;;;;5033084;28;20775;-70
2023/02/13 09:33:35;;;;;;;19.57;14.90;;;6.20;99.90;;;;;;5032852;28;20499;-70
2023/02/13 09:36:13;;;;;;;18.80;15.53;;;6.40;99.90;;;;;;5048186;28;20485;-70
2023/02/13 09:38:42;;;;;;;19.07;15.30;;;6.50;99.90;;;;;;5033429;28;20386;-70
2023/02/13 09:41:20;;;;;;;17.57;14.70;;;6.20;99.90;;;;;;5033154;28;20441;-70
2023/02/13 09:43:51;;;;;;;18.00;14.30;;;6.30;99.90;;;;;;5033020;28;20383;-70
2023/02/13 09:46:23;;;;;;;17.90;14.77;;;6.50;99.90;;;;;;5048084;28;20963;-70
2023/02/13 09:48:53;;;;;;;17.40;14.37;;;6.70;99.90;;;;;;5034830;28;20550;-70
2023/02/13 09:51:22;;;;;;;18.63;15.57;;;6.70;99.90;;;;;;5052333;28;20396;-70
2023/02/13 09:53:56;;;;;;;19.50;16.10;;;6.70;99.90;;;;;;5037503;28;20391;-70
2023/02/13 09:56:49;;;;;;;18.23;14.93;;;6.80;99.90;;;;;;5024168;28;20400;-71
2023/02/13 09:59:30;;;;;;;20.20;16.50;;;7.00;99.90;;;;;;5017465;28;20733;-71
2023/02/13 10:02:07;;;;;;;20.57;16.67;;;7.00;99.90;;;;;;5019136;28;20875;-71
2023/02/13 10:04:59;;;;;;;19.87;17.37;;;6.90;99.90;;;;;;5036326;28;20445;-71
2023/02/13 10:07:53;;;;;;;20.13;15.30;;;6.80;99.90;;;;;;5051801;28;20448;-71
2023/02/13 10:10:42;;;;;;;19.77;16.43;;;7.00;99.90;;;;;;5035364;28;20548;-70
2023/02/13 10:13:29;;;;;;;16.20;14.50;;;7.20;99.90;;;;;;5037073;28;20400;-70
2023/02/13 10:16:13;;;;;;;18.23;15.50;;;7.30;99.90;;;;;;5036465;28;20411;-70
2023/02/13 10:18:46;;;;;;;17.20;15.07;;;7.40;99.90;;;;;;5036433;28;20395;-71
2023/02/13 10:21:13;;;;;;;16.20;14.37;;;7.30;99.90;;;;;;5036171;28;20808;-71
2023/02/13 10:23:49;;;;;;;15.40;13.40;;;7.40;99.90;;;;;;5036236;28;20408;-71
2023/02/13 10:26:22;;;;;;;14.30;12.80;;;7.60;99.90;;;;;;5036124;28;20441;-71
2023/02/13 10:31:50;;;;;;;17.77;14.17;;;7.70;99.90;;;;;;5036044;28;20946;-71
2023/02/13 10:34:20;;;;;;;16.37;13.37;;;7.60;99.90;;;;;;5035976;28;20424;-69
2023/02/13 10:36:46;;;;;;;14.70;11.97;;;7.70;99.90;;;;;;5036001;28;20413;-71
2023/02/13 10:39:22;;;;;;;14.93;12.30;;;7.90;99.90;;;;;;5036698;28;20404;-71
2023/02/13 10:41:56;;;;;;;15.17;13.07;;;8.10;99.90;;;;;;5036846;28;20417;-71
2023/02/13 10:44:50;;;;;;;13.83;11.70;;;8.20;99.90;;;;;;5036227;28;20465;-71
2023/02/13 10:47:56;;;;;;;12.80;10.80;;;8.30;99.90;;;;;;5036277;28;20479;-71
2023/02/13 10:50:35;;;;;;;15.20;11.43;;;8.40;99.90;;;;;;5036683;28;20422;-71
2023/02/13 10:53:22;;;;;;;15.00;12.43;;;8.30;99.90;;;;;;5051131;28;20405;-71
2023/02/13 10:56:09;;;;;;;13.53;11.20;;;8.20;99.90;;;;;;5036102;28;20427;-70
2023/02/13 10:58:57;;;;;;;14.63;10.60;;;8.40;99.90;;;;;;5025049;28;20492;-70
2023/02/13 11:01:31;;;;;;;11.33;10.17;;;8.30;99.90;;;;;;5016047;28;20888;-71
2023/02/13 11:04:07;;;;;;;14.73;11.60;;;8.30;99.90;;;;;;5032464;28;20420;-70
2023/02/13 11:06:35;;;;;;;11.47;9.83;;;8.40;99.90;;;;;;5035344;28;20400;-69
2023/02/13 11:09:00;;;;;;;11.57;10.03;;;8.50;99.90;;;;;;5050705;28;20453;-71
2023/02/13 11:11:36;;;;;;;12.03;10.70;;;8.60;99.90;;;;;;5050792;28;20437;-71
2023/02/13 11:14:14;;;;;;;10.40;8.23;;;8.60;99.90;;;;;;5035581;28;20165;-71
2023/02/13 11:16:56;;;;;;;10.70;8.93;;;8.70;99.90;;;;;;5050666;28;20414;-71
2023/02/13 11:19:32;;;;;;;12.07;8.77;;;9.40;99.90;;;;;;5035301;28;20783;-70
2023/02/13 11:22:29;;;;;;;9.40;8.47;;;11.50;99.90;;;;;;5035509;28;20397;-71
2023/02/13 11:25:20;;;;;;;8.77;7.83;;;13.20;99.90;;;;;;5035012;28;20450;-70
2023/02/13 11:27:48;;;;;;;9.60;7.70;;;14.30;98.50;;;;;;5027876;28;20470;-70
2023/02/13 11:30:22;;;;;;;10.37;8.73;;;15.50;96.60;;;;;;5015349;28;20467;-70
2023/02/13 11:33:17;;;;;;;9.87;8.73;;;16.60;94.70;;;;;;5024220;28;20424;-70
2023/02/13 11:35:43;;;;;;;10.00;8.93;;;16.70;92.70;;;;;;5035385;28;20470;-70
2023/02/13 11:38:09;;;;;;;15.10;9.33;;;16.30;91.60;;;;;;5035427;28;20414;-71
2023/02/13 11:40:35;;;;;;;9.30;8.40;;;17.40;91.80;;;;;;5035413;28;20972;-70
2023/02/13 11:43:00;;;;;;;10.63;9.17;;;17.20;87.90;;;;;;5050448;28;20173;-70
2023/02/13 11:45:26;;;;;;;10.80;8.77;;;16.80;90.80;;;;;;5033098;28;20289;-71
2023/02/13 11:47:54;;;;;;;9.10;8.20;;;17.60;89.00;;;;;;5031504;28;20283;-70
2023/02/13 11:50:33;;;;;;;9.70;8.70;;;17.10;87.30;;;;;;5013896;28;20189;-70
2023/02/13 11:53:17;;;;;;;10.87;8.70;;;16.00;88.90;;;;;;5015349;28;20407;-70
2023/02/13 11:55:45;;;;;;;9.97;8.97;;;16.10;90.20;;;;;;5015069;28;20431;-71
2023/02/13 11:58:10;;;;;;;9.77;8.83;;;16.30;90.00;;;;;;5015097;28;20506;-71
2023/02/13 12:00:40;;;;;;;12.50;7.80;;;16.70;88.80;;;;;;5015045;28;20407;-71
2023/02/13 12:03:20;;;;;;;9.60;8.63;;;16.70;88.50;;;;;;5025965;28;20199;-70
2023/02/13 12:06:17;;;;;;;9.37;8.43;;;17.10;87.80;;;;;;5034586;28;20428;-70
2023/02/13 12:08:45;;;;;;;9.90;8.90;;;17.90;84.70;;;;;;5022519;28;20477;-71
2023/02/13 12:11:35;;;;;;;11.93;8.90;;;16.90;86.60;;;;;;5032269;28;20925;-71
2023/02/13 12:14:01;;;;;;;10.90;9.80;;;17.60;85.20;;;;;;5033878;28;20418;-71
2023/02/13 12:16:34;;;;;;;11.57;9.53;;;17.90;85.30;;;;;;5034273;28;20774;-71
2023/02/13 12:19:05;;;;;;;10.40;9.17;;;17.80;83.20;;;;;;5034167;28;20445;-71
2023/02/13 12:22:13;;;;;;;10.13;9.20;;;17.60;83.50;;;;;;5034558;28;20379;-71
2023/02/13 12:24:56;;;;;;;11.50;10.40;;;18.40;82.80;;;;;;5027643;28;20568;-71
2023/02/13 12:27:41;;;;;;;10.60;9.60;;;19.70;79.60;;;;;;5034474;28;20881;-71
2023/02/13 12:30:40;;;;;;;12.33;10.90;;;19.70;78.50;;;;;;5034712;28;20752;-71
2023/02/13 12:33:23;;;;;;;13.17;11.80;;;20.30;77.80;;;;;;5032867;28;20410;-71
2023/02/13 12:36:00;;;;;;;11.50;10.50;;;20.20;75.10;;;;;;5033863;28;20794;-70
2023/02/13 12:38:47;;;;;;;13.20;11.90;;;19.00;77.00;;;;;;5034199;28;20484;-71
2023/02/13 12:41:15;;;;;;;12.67;11.37;;;;;;;;;;5034236;28;20405;-72
2023/02/13 12:43:57;;;;;;;11.63;10.57;;;;;;;;;;5033901;28;20398;-71
2023/02/13 12:46:40;;;;;;;15.33;12.80;;;;;;;;;;5033930;28;20406;-71
2023/02/13 12:49:24;;;;;;;12.10;10.97;;;;;;;;;;5033527;28;20902;-72
2023/02/13 12:51:55;;;;;;;12.20;11.00;;;;;;;;;;5033967;28;20390;-72
2023/02/13 12:54:31;;;;;;;11.47;10.37;;;;;;;;;;5048833;28;20803;-71
2023/02/13 12:56:57;;;;;;;11.33;10.23;;;;;;;;;;5017030;28;20893;-71
2023/02/13 12:59:45;;;;;;;12.83;10.53;;;;;;;;;;5014066;28;20518;-71
2023/02/13 13:02:26;;;;;;;12.23;10.93;;;;;;;;;;5015859;28;20392;-71
2023/02/13 13:04:52;;;;;;;12.77;11.50;;;;;;;;;;5033077;28;20505;-71
2023/02/13 13:07:37;;;;;;;15.70;11.40;;;;;;;;;;5048669;28;20457;-71
2023/02/13 13:10:18;;;;;;;11.63;10.53;;;;;;;;;;5048804;28;20410;-71
2023/02/13 13:12:44;;;;;;;10.80;9.70;;;;;;;;;;5033558;28;20403;-71
2023/02/13 13:15:10;;;;;;;12.40;11.17;;;;;;;;;;5032951;28;20429;-71
2023/02/13 13:17:36;;;;;;;10.43;9.40;;;;;;;;;;5033606;28;20444;-72
2023/02/13 13:20:08;;;;;;;12.20;11.10;;;;;;;;;;5032740;28;20410;-70
2023/02/13 13:22:39;;;;;;;12.13;11.00;;;;;;;;;;5032960;28;20410;-71
2023/02/13 13:25:26;;;;;;;12.60;11.37;;;;;;;;;;5048317;28;20461;-70
2023/02/13 13:27:55;;;;;;;11.30;10.20;;;;;;;;;;5032420;28;20473;-71
2023/02/13 13:30:23;;;;;;;12.37;11.07;;;;;;;;;;5033425;28;20402;-71
2023/02/13 13:32:52;;;;;;;11.20;10.10;;;;;;;;;;5032171;28;20816;-71
2023/02/13 13:35:19;;;;;;;10.73;9.63;;;;;;;;;;5033371;28;20518;-71
2023/02/13 13:38:01;;;;;;;12.23;11.03;;;;;;;;;;5033278;28;20406;-71
2023/02/13 13:40:36;;;;;;;11.10;10.10;;;;;;;;;;5033373;28;20501;-71
2023/02/13 13:43:07;;;;;;;11.60;10.40;;;;;;;;;;5033544;28;20793;-71
2023/02/13 13:45:47;;;;;;;11.07;9.97;;;;;;;;;;5014158;28;20450;-71
2023/02/13 13:48:33;;;;;;;16.43;11.17;;;;;;;;;;5013176;28;21011;-71
2023/02/13 13:51:00;;;;;;;9.87;8.73;;;;;;;;;;5013468;28;20386;-71